Time;durP1;ratioP1;P1;durP2;ratioP2;P2;SDS_P1;SDS_P2;PMS_P1;PMS_P2;Temp;Humidity;BMP_temperature;BMP_pressure;BME280_temperature;BME280_humidity;BME280_pressure;Samples;Min_cycle;Max_cycle;Signal;HPM_P1;HPM_P2
2021/12/30 00:02:26;;;;;;;;;;;;;;;;;;4906121;29;19927;-84
2021/12/30 00:04:52;;;;;;;;;;;;;;;;;;4904078;29;19927;-85
2021/12/30 00:07:18;;;;;;;;;;;;;;;;;;4912592;28;19965;-84
2021/12/30 00:09:44;;;;;;;;;;;;;;;;;;4901803;29;19931;-84
2021/12/30 00:12:14;;;;;;;;;;;;;;;;;;4901923;29;20054;-84
2021/12/30 00:14:41;;;;;;;;;;;;;;;;;;4912251;29;19926;-84
2021/12/30 00:17:07;;;;;;;;;;;;;;;;;;4895683;29;20391;-84
2021/12/30 00:19:33;;;;;;;;;;;;;;;;;;4882465;29;20017;-84
2021/12/30 00:21:59;;;;;;;;;;;;;;;;;;4899946;29;19919;-84
2021/12/30 00:24:25;;;;;;;;;;;;;;;;;;4914666;29;19969;-84
2021/12/30 00:26:51;;;;;;;;;;;;;;;;;;4887247;29;20592;-84
2021/12/30 00:29:17;;;;;;;;;;;;;;;;;;4913204;29;19927;-84
2021/12/30 00:31:43;;;;;;;;;;;;;;;;;;4910837;29;21470;-84
2021/12/30 00:34:13;;;;;;;;;;;;;;;;;;4912591;29;19926;-84
2021/12/30 00:36:39;;;;;;;;;;;;;;;;;;4915296;29;20297;-84
2021/12/30 00:39:06;;;;;;;;;;;;;;;;;;4911484;29;19986;-84
2021/12/30 00:41:32;;;;;;;;;;;;;;;;;;4911968;29;20041;-84
2021/12/30 00:43:59;;;;;;;;;;;;;;;;;;4902390;29;19942;-84
2021/12/30 00:46:26;;;;;;;;;;;;;;;;;;4897303;29;19923;-84
2021/12/30 00:48:52;;;;;;;;;;;;;;;;;;4915798;29;20307;-84
2021/12/30 00:51:18;;;;;;;;;;;;;;;;;;4912983;29;19922;-84
2021/12/30 00:53:44;;;;;;;;;;;;;;;;;;4913876;29;19923;-84
2021/12/30 00:56:10;;;;;;;;;;;;;;;;;;4919432;29;19934;-84
2021/12/30 00:58:37;;;;;;;;;;;;;;;;;;4912312;29;19969;-84
2021/12/30 01:01:04;;;;;;;;;;;;;;;;;;4918198;29;19923;-85
2021/12/30 01:03:31;;;;;;;;;;;;;;;;;;4893503;29;19919;-85
2021/12/30 01:05:58;;;;;;;;;;;;;;;;;;4900194;29;19938;-85
2021/12/30 01:08:24;;;;;;;;;;;;;;;;;;4895882;29;20372;-85
2021/12/30 01:10:50;;;;;;;;;;;;;;;;;;4913186;28;19998;-85
2021/12/30 01:13:23;;;;;;;;;;;;;;;;;;4905230;29;19919;-84
2021/12/30 01:15:59;;;;;;;;;;;;;;;;;;4888852;29;20006;-85
2021/12/30 01:20:52;;;;;;;;;;;;;;;;;;4898969;29;19973;-84
2021/12/30 01:23:18;;;;;;;;;;;;;;;;;;4895005;29;19954;-84
2021/12/30 01:25:44;;;;;;;;;;;;;;;;;;4902891;29;20017;-84
2021/12/30 01:28:10;;;;;;;;;;;;;;;;;;4904874;29;20333;-84
2021/12/30 01:30:37;;;;;;;;;;;;;;;;;;4896526;29;19933;-84
2021/12/30 01:33:03;;;;;;;;;;;;;;;;;;4904727;29;19922;-84
2021/12/30 01:35:30;;;;;;;;;;;;;;;;;;4900340;29;19930;-84
2021/12/30 01:38:00;;;;;;;;;;;;;;;;;;4902456;29;20296;-84
2021/12/30 01:40:27;;;;;;;;;;;;;;;;;;4899394;29;19926;-84
2021/12/30 01:42:54;;;;;;;;;;;;;;;;;;4902407;29;19919;-85
2021/12/30 01:45:20;;;;;;;;;;;;;;;;;;4895601;29;19993;-84
2021/12/30 01:47:50;;;;;;;;;;;;;;;;;;4900590;29;19990;-84
2021/12/30 01:50:17;;;;;;;;;;;;;;;;;;4900456;29;19977;-84
2021/12/30 01:52:43;;;;;;;;;;;;;;;;;;4887743;29;19931;-84
2021/12/30 01:55:10;;;;;;;;;;;;;;;;;;4899140;29;19954;-84
2021/12/30 01:57:36;;;;;;;;;;;;;;;;;;4879043;29;19929;-84
2021/12/30 02:00:02;;;;;;;;;;;;;;;;;;4904651;29;19923;-84
2021/12/30 02:02:28;;;;;;;;;;;;;;;;;;4898088;28;19969;-84
2021/12/30 02:04:54;;;;;;;;;;;;;;;;;;4898109;29;20389;-84
2021/12/30 02:07:21;;;;;;;;;;;;;;;;;;4895245;29;19994;-85
2021/12/30 02:09:47;;;;;;;;;;;;;;;;;;4897411;29;21913;-84
2021/12/30 02:12:14;;;;;;;;;;;;;;;;;;4896988;29;19926;-85
2021/12/30 02:14:44;;;;;;;;;;;;;;;;;;4898067;29;19934;-85
2021/12/30 02:17:10;;;;;;;;;;;;;;;;;;4895551;29;20012;-84
2021/12/30 02:19:36;;;;;;;;;;;;;;;;;;4897296;29;19918;-85
2021/12/30 02:22:02;;;;;;;;;;;;;;;;;;4918537;29;19919;-84
2021/12/30 02:24:28;;;;;;;;;;;;;;;;;;4913247;29;19969;-85
2021/12/30 02:26:54;;;;;;;;;;;;;;;;;;4916377;29;19919;-85
2021/12/30 02:29:20;;;;;;;;;;;;;;;;;;4912739;29;19927;-85
2021/12/30 02:31:47;;;;;;;;;;;;;;;;;;4895797;29;19966;-84
2021/12/30 02:34:15;;;;;;;;;;;;;;;;;;4899158;29;19926;-84
2021/12/30 02:36:42;;;;;;;;;;;;;;;;;;4898881;29;19923;-85
2021/12/30 02:39:09;;;;;;;;;;;;;;;;;;4902859;29;21449;-85
2021/12/30 02:41:37;;;;;;;;;;;;;;;;;;4878908;28;19919;-85
2021/12/30 02:44:03;;;;;;;;;;;;;;;;;;4892854;29;19918;-85
2021/12/30 02:46:30;;;;;;;;;;;;;;;;;;4890169;29;19929;-85
2021/12/30 02:48:57;;;;;;;;;;;;;;;;;;4898487;29;19922;-83
2021/12/30 02:51:23;;;;;;;;;;;;;;;;;;4895087;29;19934;-84
2021/12/30 02:53:49;;;;;;;;;;;;;;;;;;4912485;29;19990;-84
2021/12/30 02:56:15;;;;;;;;;;;;;;;;;;4906282;29;19918;-84
2021/12/30 02:58:41;;;;;;;;;;;;;;;;;;4903631;29;19958;-85
2021/12/30 03:01:07;;;;;;;;;;;;;;;;;;4916594;29;19926;-85
2021/12/30 03:03:48;;;;;;;;;;;;;;;;;;4913007;29;20021;-84
2021/12/30 03:06:15;;;;;;;;;;;;;;;;;;4909374;29;19923;-84
2021/12/30 03:08:41;;;;;;;;;;;;;;;;;;4932081;28;19923;-85
2021/12/30 03:11:07;;;;;;;;;;;;;;;;;;4914737;29;19919;-85
2021/12/30 03:13:34;;;;;;;;;;;;;;;;;;4912834;29;19926;-84
2021/12/30 03:16:00;;;;;;;;;;;;;;;;;;4901398;29;19927;-85
2021/12/30 03:18:27;;;;;;;;;;;;;;;;;;4909214;29;19982;-84
2021/12/30 03:20:53;;;;;;;;;;;;;;;;;;4913932;29;19961;-84
2021/12/30 03:23:19;;;;;;;;;;;;;;;;;;4913205;29;19922;-84
2021/12/30 03:25:45;;;;;;;;;;;;;;;;;;4910965;28;19919;-84
2021/12/30 03:28:11;;;;;;;;;;;;;;;;;;4903328;28;19933;-84
2021/12/30 03:30:37;;;;;;;;;;;;;;;;;;4920107;29;19919;-84
2021/12/30 03:33:04;;;;;;;;;;;;;;;;;;4915438;29;19923;-84
2021/12/30 03:35:30;;;;;;;;;;;;;;;;;;4915095;29;19923;-84
2021/12/30 03:37:57;;;;;;;;;;;;;;;;;;4920012;29;19954;-84
2021/12/30 03:40:23;;;;;;;;;;;;;;;;;;4912312;29;19927;-84
2021/12/30 03:42:49;;;;;;;;;;;;;;;;;;4916847;29;19927;-84
2021/12/30 03:45:15;;;;;;;;;;;;;;;;;;4910113;29;19958;-84
2021/12/30 03:47:42;;;;;;;;;;;;;;;;;;4920823;29;20040;-84
2021/12/30 03:50:09;;;;;;;;;;;;;;;;;;4910122;29;19919;-84
2021/12/30 03:52:35;;;;;;;;;;;;;;;;;;4914785;29;19927;-84
2021/12/30 03:55:01;;;;;;;;;;;;;;;;;;4903881;29;19919;-85
2021/12/30 03:57:27;;;;;;;;;;;;;;;;;;4913178;29;19926;-84
2021/12/30 03:59:53;;;;;;;;;;;;;;;;;;4903617;29;19926;-84
2021/12/30 04:02:19;;;;;;;;;;;;;;;;;;4912486;29;19927;-84
2021/12/30 04:04:45;;;;;;;;;;;;;;;;;;4916507;29;20431;-84
2021/12/30 04:07:11;;;;;;;;;;;;;;;;;;4914759;29;19919;-85
2021/12/30 04:09:37;;;;;;;;;;;;;;;;;;4914102;29;19926;-84
2021/12/30 04:12:04;;;;;;;;;;;;;;;;;;4917715;29;19965;-84
2021/12/30 04:14:30;;;;;;;;;;;;;;;;;;4912514;29;19969;-84
2021/12/30 04:16:56;;;;;;;;;;;;;;;;;;4913606;28;19980;-84
2021/12/30 04:19:23;;;;;;;;;;;;;;;;;;4914078;29;19955;-84
2021/12/30 04:21:53;;;;;;;;;;;;;;;;;;4933421;28;19923;-84
2021/12/30 04:24:20;;;;;;;;;;;;;;;;;;4915204;29;20016;-84
2021/12/30 04:26:46;;;;;;;;;;;;;;;;;;4918418;28;19931;-84
2021/12/30 04:29:13;;;;;;;;;;;;;;;;;;4896045;29;19978;-84
2021/12/30 04:31:39;;;;;;;;;;;;;;;;;;4912285;28;19926;-84
2021/12/30 04:34:05;;;;;;;;;;;;;;;;;;4915314;29;20411;-84
2021/12/30 04:36:31;;;;;;;;;;;;;;;;;;4896636;29;19927;-85
2021/12/30 04:38:57;;;;;;;;;;;;;;;;;;4917657;29;19919;-85
2021/12/30 04:41:24;;;;;;;;;;;;;;;;;;4899207;29;19930;-84
2021/12/30 04:43:50;;;;;;;;;;;;;;;;;;4913863;29;19923;-84
2021/12/30 04:46:16;;;;;;;;;;;;;;;;;;4914606;29;19965;-84
2021/12/30 04:48:42;;;;;;;;;;;;;;;;;;4912281;29;19934;-85
2021/12/30 04:51:09;;;;;;;;;;;;;;;;;;4913505;28;19934;-85
2021/12/30 04:53:35;;;;;;;;;;;;;;;;;;4909110;29;19931;-85
2021/12/30 04:56:01;;;;;;;;;;;;;;;;;;4918123;29;19925;-85
2021/12/30 04:58:27;;;;;;;;;;;;;;;;;;4900733;29;20388;-85
2021/12/30 05:00:53;;;;;;;;;;;;;;;;;;4917496;28;20153;-85
2021/12/30 05:03:21;;;;;;;;;;;;;;;;;;4914445;29;21927;-85
2021/12/30 05:05:49;;;;;;;;;;;;;;;;;;4917297;28;19926;-84
2021/12/30 05:08:16;;;;;;;;;;;;;;;;;;4900498;29;19926;-84
2021/12/30 05:10:42;;;;;;;;;;;;;;;;;;4917204;28;19922;-84
2021/12/30 05:13:08;;;;;;;;;;;;;;;;;;4899779;29;19946;-84
2021/12/30 05:15:34;;;;;;;;;;;;;;;;;;4916323;29;19922;-84
2021/12/30 05:18:00;;;;;;;;;;;;;;;;;;4921594;29;20005;-84
2021/12/30 05:20:27;;;;;;;;;;;;;;;;;;4906596;29;19962;-84
2021/12/30 05:22:53;;;;;;;;;;;;;;;;;;4917483;28;19919;-84
2021/12/30 05:25:19;;;;;;;;;;;;;;;;;;4915521;29;20321;-85
2021/12/30 05:27:46;;;;;;;;;;;;;;;;;;4916979;29;19967;-84
2021/12/30 05:30:12;;;;;;;;;;;;;;;;;;4911419;29;19974;-84
2021/12/30 05:32:38;;;;;;;;;;;;;;;;;;4911536;29;19927;-84
2021/12/30 05:35:05;;;;;;;;;;;;;;;;;;4931449;28;19973;-84
2021/12/30 05:37:31;;;;;;;;;;;;;;;;;;4916236;29;22498;-84
2021/12/30 05:39:57;;;;;;;;;;;;;;;;;;4914999;28;19937;-84
2021/12/30 05:42:23;;;;;;;;;;;;;;;;;;4913295;29;19919;-84
2021/12/30 05:44:50;;;;;;;;;;;;;;;;;;4909201;29;19951;-84
2021/12/30 05:47:16;;;;;;;;;;;;;;;;;;4914248;28;20013;-84
2021/12/30 05:49:41;;;;;;;;;;;;;;;;;;4915329;29;19945;-84
2021/12/30 05:52:07;;;;;;;;;;;;;;;;;;4909080;28;19925;-84
2021/12/30 05:54:33;;;;;;;;;;;;;;;;;;4896364;29;19930;-84
2021/12/30 05:57:00;;;;;;;;;;;;;;;;;;4899051;29;20416;-84
2021/12/30 05:59:25;;;;;;;;;;;;;;;;;;4886852;29;19937;-84
2021/12/30 06:01:51;;;;;;;;;;;;;;;;;;4897944;29;19923;-84
2021/12/30 06:04:17;;;;;;;;;;;;;;;;;;4883807;29;20365;-84
2021/12/30 06:06:43;;;;;;;;;;;;;;;;;;4887273;29;19934;-84
2021/12/30 06:09:10;;;;;;;;;;;;;;;;;;4899634;29;19946;-84
2021/12/30 06:11:36;;;;;;;;;;;;;;;;;;4896145;29;19922;-84
2021/12/30 06:14:04;;;;;;;;;;;;;;;;;;4900220;29;19929;-84
2021/12/30 06:16:32;;;;;;;;;;;;;;;;;;4894155;29;19962;-84
2021/12/30 06:18:59;;;;;;;;;;;;;;;;;;4918105;28;20408;-84
2021/12/30 06:21:26;;;;;;;;;;;;;;;;;;4909972;29;19985;-84
2021/12/30 06:23:51;;;;;;;;;;;;;;;;;;4899592;29;20436;-84
2021/12/30 06:26:17;;;;;;;;;;;;;;;;;;4895932;29;20030;-84
2021/12/30 06:28:43;;;;;;;;;;;;;;;;;;4915071;29;20012;-85
2021/12/30 06:31:12;;;;;;;;;;;;;;;;;;4897731;29;19927;-84
2021/12/30 06:33:39;;;;;;;;;;;;;;;;;;4901230;29;19927;-84
2021/12/30 06:36:05;;;;;;;;;;;;;;;;;;4899509;29;20394;-84
2021/12/30 06:38:31;;;;;;;;;;;;;;;;;;4900179;29;19982;-84
2021/12/30 06:40:57;;;;;;;;;;;;;;;;;;4884172;29;19930;-84
2021/12/30 06:43:23;;;;;;;;;;;;;;;;;;4882167;29;19918;-85
2021/12/30 06:45:49;;;;;;;;;;;;;;;;;;4899505;29;19930;-84
2021/12/30 06:48:15;;;;;;;;;;;;;;;;;;4896928;29;19930;-84
2021/12/30 06:50:42;;;;;;;;;;;;;;;;;;4913565;29;21809;-84
2021/12/30 06:53:08;;;;;;;;;;;;;;;;;;4916074;28;20013;-84
2021/12/30 06:55:34;;;;;;;;;;;;;;;;;;4894230;29;20366;-85
2021/12/30 06:58:00;;;;;;;;;;;;;;;;;;4914286;29;20370;-84
2021/12/30 07:00:26;;;;;;;;;;;;;;;;;;4895188;29;19942;-83
2021/12/30 07:02:53;;;;;;;;;;;;;;;;;;4918012;29;19962;-83
2021/12/30 07:05:18;;;;;;;;;;;;;;;;;;4896901;29;19929;-84
2021/12/30 07:07:45;;;;;;;;;;;;;;;;;;4883049;29;19927;-83
2021/12/30 07:10:12;;;;;;;;;;;;;;;;;;4898577;29;20739;-83
2021/12/30 07:12:39;;;;;;;;;;;;;;;;;;4916113;29;19927;-84
2021/12/30 07:15:06;;;;;;;;;;;;;;;;;;4910202;29;19933;-82
2021/12/30 07:17:34;;;;;;;;;;;;;;;;;;4909216;29;19970;-82
2021/12/30 07:20:15;;;;;;;;;;;;;;;;;;4905015;28;19925;-82
2021/12/30 07:22:41;;;;;;;;;;;;;;;;;;4915771;28;19918;-82
2021/12/30 07:25:08;;;;;;;;;;;;;;;;;;4913806;29;19972;-82
2021/12/30 07:27:34;;;;;;;;;;;;;;;;;;4911003;29;20429;-82
2021/12/30 07:30:01;;;;;;;;;;;;;;;;;;4909548;29;19923;-82
2021/12/30 07:32:27;;;;;;;;;;;;;;;;;;4898656;29;19923;-82
2021/12/30 07:34:53;;;;;;;;;;;;;;;;;;4915656;29;19926;-81
2021/12/30 07:37:19;;;;;;;;;;;;;;;;;;4910620;29;19968;-82
2021/12/30 07:39:45;;;;;;;;;;;;;;;;;;4902018;29;20034;-82
2021/12/30 07:42:11;;;;;;;;;;;;;;;;;;4912669;29;20026;-82
2021/12/30 07:44:39;;;;;;;;;;;;;;;;;;4897325;29;19929;-81
2021/12/30 07:47:04;;;;;;;;;;;;;;;;;;4911501;29;19933;-82
2021/12/30 07:49:32;;;;;;;;;;;;;;;;;;4909462;28;19930;-81
2021/12/30 07:51:58;;;;;;;;;;;;;;;;;;4914871;29;19927;-82
2021/12/30 07:54:24;;;;;;;;;;;;;;;;;;4889214;29;20329;-83
2021/12/30 07:56:50;;;;;;;;;;;;;;;;;;4890515;29;19927;-83
2021/12/30 07:59:24;;;;;;;;;;;;;;;;;;4893339;29;19949;-83
2021/12/30 08:01:50;;;;;;;;;;;;;;;;;;4915281;29;19919;-84
2021/12/30 08:04:17;;;;;;;;;;;;;;;;;;4910802;28;19918;-83
2021/12/30 08:06:43;;;;;;;;;;;;;;;;;;4911651;29;19934;-83
2021/12/30 08:09:11;;;;;;;;;;;;;;;;;;4881347;29;20402;-83
2021/12/30 08:11:37;;;;;;;;;;;;;;;;;;4892376;29;19919;-82
2021/12/30 08:14:03;;;;;;;;;;;;;;;;;;4901424;29;20598;-82
2021/12/30 08:16:29;;;;;;;;;;;;;;;;;;4888465;29;19922;-81
2021/12/30 08:18:55;;;;;;;;;;;;;;;;;;4918203;28;19919;-81
2021/12/30 08:21:21;;;;;;;;;;;;;;;;;;4913506;28;19923;-82
2021/12/30 08:23:48;;;;;;;;;;;;;;;;;;4884660;29;19942;-83
2021/12/30 08:26:14;;;;;;;;;;;;;;;;;;4895675;29;20377;-82
2021/12/30 08:28:40;;;;;;;;;;;;;;;;;;4908213;29;20010;-82
2021/12/30 08:31:06;;;;;;;;;;;;;;;;;;4905150;29;20010;-82
2021/12/30 08:33:32;;;;;;;;;;;;;;;;;;4898578;29;19931;-83
2021/12/30 08:35:58;;;;;;;;;;;;;;;;;;4899995;29;20010;-82
2021/12/30 08:38:24;;;;;;;;;;;;;;;;;;4912882;29;19919;-83
2021/12/30 08:40:50;;;;;;;;;;;;;;;;;;4900651;29;19958;-83
2021/12/30 08:43:16;;;;;;;;;;;;;;;;;;4884479;29;19966;-82
2021/12/30 08:45:42;;;;;;;;;;;;;;;;;;4896700;29;20385;-81
2021/12/30 08:48:09;;;;;;;;;;;;;;;;;;4914477;29;19927;-82
2021/12/30 08:50:35;;;;;;;;;;;;;;;;;;4874780;29;19919;-81
2021/12/30 08:53:01;;;;;;;;;;;;;;;;;;4921432;28;19962;-81
2021/12/30 08:55:27;;;;;;;;;;;;;;;;;;4893214;29;19997;-79
2021/12/30 08:57:53;;;;;;;;;;;;;;;;;;4914179;29;19928;-79
2021/12/30 09:00:19;;;;;;;;;;;;;;;;;;4913438;29;20401;-79
2021/12/30 09:02:45;;;;;;;;;;;;;;;;;;4916029;29;20055;-80
2021/12/30 09:05:11;;;;;;;;;;;;;;;;;;4916307;29;19919;-80
2021/12/30 09:07:37;;;;;;;;;;;;;;;;;;4909817;29;20009;-82
2021/12/30 09:10:03;;;;;;;;;;;;;;;;;;4896984;28;19958;-81
2021/12/30 09:12:29;;;;;;;;;;;;;;;;;;4915314;28;20700;-82
2021/12/30 09:14:55;;;;;;;;;;;;;;;;;;4896054;29;20275;-81
2021/12/30 09:17:21;;;;;;;;;;;;;;;;;;4909307;29;19930;-81
2021/12/30 09:19:47;;;;;;;;;;;;;;;;;;4912635;29;19919;-82
2021/12/30 09:22:13;;;;;;;;;;;;;;;;;;4911034;29;19957;-81
2021/12/30 09:24:39;;;;;;;;;;;;;;;;;;4918781;28;19959;-80
2021/12/30 09:27:05;;;;;;;;;;;;;;;;;;4919090;28;19962;-83
2021/12/30 09:29:31;;;;;;;;;;;;;;;;;;4907475;29;23286;-83
2021/12/30 09:31:58;;;;;;;;;;;;;;;;;;4910595;29;19926;-81
2021/12/30 09:34:24;;;;;;;;;;;;;;;;;;4909660;29;19922;-82
2021/12/30 09:36:50;;;;;;;;;;;;;;;;;;4911598;29;19923;-81
2021/12/30 09:39:16;;;;;;;;;;;;;;;;;;4910928;29;19930;-81
2021/12/30 09:41:43;;;;;;;;;;;;;;;;;;4917761;28;20281;-79
2021/12/30 09:44:10;;;;;;;;;;;;;;;;;;4916632;29;19927;-81
2021/12/30 09:46:36;;;;;;;;;;;;;;;;;;4910607;29;19926;-80
2021/12/30 09:49:02;;;;;;;;;;;;;;;;;;4916106;29;19937;-82
2021/12/30 09:51:28;;;;;;;;;;;;;;;;;;4912857;28;19969;-83
2021/12/30 09:53:54;;;;;;;;;;;;;;;;;;4898758;29;19926;-83
2021/12/30 09:56:20;;;;;;;;;;;;;;;;;;4911444;29;19918;-84
2021/12/30 09:58:47;;;;;;;;;;;;;;;;;;4915165;29;20370;-83
2021/12/30 10:01:13;;;;;;;;;;;;;;;;;;4910411;29;19926;-84
2021/12/30 10:03:39;;;;;;;;;;;;;;;;;;4920153;28;20274;-82
2021/12/30 10:06:05;;;;;;;;;;;;;;;;;;4921355;28;19930;-83
2021/12/30 10:08:36;;;;;;;;;;;;;;;;;;4918483;29;21534;-83
2021/12/30 10:11:05;;;;;;;;;;;;;;;;;;4929724;28;19919;-83
2021/12/30 10:13:31;;;;;;;;;;;;;;;;;;4909772;29;19934;-82
2021/12/30 10:15:57;;;;;;;;;;;;;;;;;;4917925;29;20326;-82
2021/12/30 10:18:24;;;;;;;;;;;;;;;;;;4911260;29;20210;-83
2021/12/30 10:20:50;;;;;;;;;;;;;;;;;;4904754;29;19919;-82
2021/12/30 10:23:16;;;;;;;;;;;;;;;;;;4908674;29;20755;-84
2021/12/30 10:25:42;;;;;;;;;;;;;;;;;;4929284;28;19923;-82
2021/12/30 10:28:08;;;;;;;;;;;;;;;;;;4911033;29;19923;-82
2021/12/30 10:30:34;;;;;;;;;;;;;;;;;;4905593;29;19927;-84
2021/12/30 10:33:00;;;;;;;;;;;;;;;;;;4913254;28;19923;-84
2021/12/30 10:35:26;;;;;;;;;;;;;;;;;;4909307;29;20432;-84
2021/12/30 10:37:52;;;;;;;;;;;;;;;;;;4929824;28;20263;-84
2021/12/30 10:40:18;;;;;;;;;;;;;;;;;;4911413;29;19929;-84
2021/12/30 10:42:44;;;;;;;;;;;;;;;;;;4917781;28;20388;-85
2021/12/30 10:45:10;;;;;;;;;;;;;;;;;;4899953;29;19925;-82
2021/12/30 10:47:36;;;;;;;;;;;;;;;;;;4903409;29;19954;-84
2021/12/30 10:50:02;;;;;;;;;;;;;;;;;;4927157;28;19923;-85
2021/12/30 10:52:28;;;;;;;;;;;;;;;;;;4911124;29;19919;-85
2021/12/30 10:54:54;;;;;;;;;;;;;;;;;;4894724;29;19990;-85
2021/12/30 10:57:20;;;;;;;;;;;;;;;;;;4889474;29;19943;-81
2021/12/30 10:59:46;;;;;;;;;;;;;;;;;;4911827;29;19922;-82
2021/12/30 11:02:13;;;;;;;;;;;;;;;;;;4895314;29;20413;-82
2021/12/30 11:04:38;;;;;;;;;;;;;;;;;;4889859;29;19927;-83
2021/12/30 11:07:05;;;;;;;;;;;;;;;;;;4897554;29;19918;-83
2021/12/30 11:09:31;;;;;;;;;;;;;;;;;;4871872;29;19935;-84
2021/12/30 11:11:58;;;;;;;;;;;;;;;;;;4913984;29;19923;-83
2021/12/30 11:14:24;;;;;;;;;;;;;;;;;;4893507;28;19929;-84
2021/12/30 11:16:53;;;;;;;;;;;;;;;;;;4889132;29;23110;-83
2021/12/30 11:19:19;;;;;;;;;;;;;;;;;;4891984;29;19922;-82
2021/12/30 11:21:47;;;;;;;;;;;;;;;;;;4898329;29;20334;-83
2021/12/30 11:24:14;;;;;;;;;;;;;;;;;;4893448;29;19919;-83
2021/12/30 11:26:40;;;;;;;;;;;3.50;99.90;;;;;;4899691;29;19919;-83
2021/12/30 11:29:05;;;;;;;;;;;12.70;99.90;;;;;;4888927;29;20395;-83
2021/12/30 11:31:31;;;;;;;;;;;12.50;99.90;;;;;;4879889;29;19927;-83
2021/12/30 11:33:57;;;;;;;;;;;;;;;;;;4903255;29;19919;-82
2021/12/30 11:36:23;;;;;;;;;;;;;;;;;;4915007;29;20451;-83
2021/12/30 11:38:49;;;;;;;;;;;;;;;;;;4902011;29;19918;-83
2021/12/30 11:41:15;;;;;;;;;;;;;;;;;;4891206;29;19926;-83
2021/12/30 11:43:41;;;;;;;;;;;;;;;;;;4915554;29;19922;-84
2021/12/30 11:46:07;;;;;;;;;;;;;;;;;;4899850;29;19925;-83
2021/12/30 11:48:38;;;;;;;;;;;;;;;;;;4874543;29;19931;-83
2021/12/30 11:51:10;;;;;;;;;;;;;;;;;;4900112;29;19930;-84
2021/12/30 11:53:38;;;;;;;;;;;;;;;;;;4890338;29;20000;-83
2021/12/30 11:56:04;;;;;;;;;;;;;;;;;;4919424;28;20025;-83
2021/12/30 11:58:40;;;;;;;;;;;;;;;;;;4914866;28;19922;-83
2021/12/30 12:01:06;;;;;;;;;;;;;;;;;;4920689;29;19929;-83
2021/12/30 12:03:31;;;;;;;;;;;;;;;;;;4915098;29;20790;-84
2021/12/30 12:05:57;;;;;;;;;;;;;;;;;;4913976;28;19918;-83
2021/12/30 12:08:23;;;;;;;;;;;;;;;;;;4913903;29;20655;-82
2021/12/30 12:10:49;;;;;;;;;;;;;;;;;;4923521;29;20006;-83
2021/12/30 12:13:15;;;;;;;;;;;;;;;;;;4918643;28;20002;-83
2021/12/30 12:15:41;;;;;;;;;;;;;;;;;;4913821;29;19982;-83
2021/12/30 12:18:08;;;;;;;;;;;;;;;;;;4921875;29;19922;-82
2021/12/30 12:20:34;;;;;;;;;;;;;;;;;;4916021;28;20017;-83
2021/12/30 12:23:00;;;;;;;;;;;;;;;;;;4918037;29;20041;-83
2021/12/30 12:25:26;;;;;;;;;;;;;;;;;;4917060;28;19934;-83
2021/12/30 12:27:52;;;;;;;;;;;;;;;;;;4919565;28;19918;-83
2021/12/30 12:30:18;;;;;;;;;;;;;;;;;;4912348;29;19977;-84
2021/12/30 12:32:44;;;;;;;;;;;;;;;;;;4915817;29;19922;-83
2021/12/30 12:35:10;;;;;;;;;;;;;;;;;;4913500;29;19974;-83
2021/12/30 12:37:37;;;;;;;;;;;;;;;;;;4899581;29;19927;-84
2021/12/30 12:40:03;;;;;;;;;;;;;;;;;;4914576;29;19990;-83
2021/12/30 12:42:28;;;;;;;;;;;;;;;;;;4909242;28;19927;-84
2021/12/30 12:44:54;;;;;;;;;;;;;;;;;;4903919;29;20009;-84
2021/12/30 12:47:20;;;;;;;;;;;;;;;;;;4901636;29;20384;-84
2021/12/30 12:49:46;;;;;;;;;;;;;;;;;;4919984;29;20346;-84
2021/12/30 12:52:12;;;;;;;;;;;;;;;;;;4910599;29;19926;-84
2021/12/30 12:54:38;;;;;;;;;;;;;;;;;;4912259;29;19926;-84
2021/12/30 12:57:04;;;;;;;;;;;;;;;;;;4899375;29;19944;-83
2021/12/30 12:59:30;;;;;;;;;;;;;;;;;;4896315;29;19927;-84
2021/12/30 13:01:57;;;;;;;;;;;;;;;;;;4889368;29;19922;-83
2021/12/30 13:04:23;;;;;;;;;;;;;;;;;;4899842;28;19923;-83
2021/12/30 13:06:49;;;;;;;;;;;;;;;;;;4897539;29;19926;-84
2021/12/30 13:09:15;;;;;;;;;;;;;;;;;;4886872;28;19922;-84
2021/12/30 13:11:41;;;;;;;;;;;;;;;;;;4899740;29;19965;-84
2021/12/30 13:14:07;;;;;;;;;;;;;;;;;;4892654;29;20378;-83
2021/12/30 13:16:33;;;;;;;;;;;;;;;;;;4896567;29;19926;-83
2021/12/30 13:19:00;;;;;;;;;;;;;;;;;;4913357;28;19946;-83
2021/12/30 13:21:26;;;;;;;;;;;;;;;;;;4891024;29;20569;-81
2021/12/30 13:23:52;;;;;;;;;;;;;;;;;;4895540;29;19923;-82
2021/12/30 13:26:18;;;;;;;;;;;;;;;;;;4904254;28;20667;-83
2021/12/30 13:28:44;;;;;;;;;;;;;;;;;;4901880;29;19930;-81
2021/12/30 13:31:14;;;;;;;;;;;;;;;;;;4899631;29;19922;-82
2021/12/30 13:33:40;;;;;;;;;;;;;;;;;;4897594;29;19926;-82
2021/12/30 13:36:06;;;;;;;;;;;;;;;;;;4893496;29;19950;-83
2021/12/30 13:38:32;;;;;;;;;;;;;;;;;;4880825;29;19927;-83
2021/12/30 13:40:58;;;;;;;;;;;;;;;;;;4902826;29;19923;-84
2021/12/30 13:43:24;;;;;;;;;;;;;;;;;;4887184;29;19922;-84
2021/12/30 13:45:52;;;;;;;;;;;;;;;;;;4899997;29;19919;-83
2021/12/30 13:48:18;;;;;;;;;;;;;;;;;;4906654;28;19949;-84
2021/12/30 13:50:44;;;;;;;;;;;;;;;;;;4902124;29;19919;-83
2021/12/30 13:53:10;;;;;;;;;;;;;;;;;;4915807;29;19954;-84
2021/12/30 13:55:37;;;;;;;;;;;;;;;;;;4898039;29;19926;-84
2021/12/30 13:58:03;;;;;;;;;;;;;;;;;;4915811;29;19919;-83
2021/12/30 14:00:29;;;;;;;;;;;;;;;;;;4913159;29;19927;-84
2021/12/30 14:02:55;;;;;;;;;;;;;;;;;;4914960;29;19925;-84
2021/12/30 14:05:21;;;;;;;;;;;;;;;;;;4895178;29;19923;-84
2021/12/30 14:07:47;;;;;;;;;;;;;;;;;;4910600;28;19923;-84
2021/12/30 14:10:13;;;;;;;;;;;;;;;;;;4893555;29;20369;-83
2021/12/30 14:12:39;;;;;;;;;;;;;;;;;;4902989;29;19915;-83
2021/12/30 14:15:05;;;;;;;;;;;;;;;;;;4912499;29;19926;-83
2021/12/30 14:17:31;;;;;;;;;;;;;;;;;;4906723;29;19926;-84
2021/12/30 14:19:57;;;;;;;;;;;;;;;;;;4912379;28;19970;-83
2021/12/30 14:22:23;;;;;;;;;;;;;;;;;;4910731;29;19919;-83
2021/12/30 14:24:49;;;;;;;;;;;;;;;;;;4916470;29;19934;-83
2021/12/30 14:27:15;;;;;;;;;;;;;;;;;;4907236;29;19918;-84
2021/12/30 14:29:41;;;;;;;;;;;;;;;;;;4899051;29;19931;-83
2021/12/30 14:32:09;;;;;;;;;;;;;;;;;;4900331;29;19919;-84
2021/12/30 14:34:35;;;;;;;;;;;;;;;;;;4894098;29;20018;-84
2021/12/30 14:37:01;;;;;;;;;;;;;;;;;;4895288;29;20457;-84
2021/12/30 14:39:27;;;;;;;;;;;;;;;;;;4895264;29;19970;-84
2021/12/30 14:41:53;;;;;;;;;;;;;;;;;;4881327;29;20017;-84
2021/12/30 14:44:19;;;;;;;;;;;;;;;;;;4903470;28;19930;-83
2021/12/30 14:46:45;;;;;;;;;;;;;;;;;;4897422;29;19943;-83
2021/12/30 14:49:11;;;;;;;;;;;;;;;;;;4914857;29;20373;-83
2021/12/30 14:51:38;;;;;;;;;;;;;;;;;;4880839;28;20456;-83
2021/12/30 14:54:04;;;;;;;;;;;;;;;;;;4897289;28;19927;-83
2021/12/30 14:56:30;;;;;;;;;;;;;;;;;;4908221;29;20301;-83
2021/12/30 14:58:56;;;;;;;;;;;;;;;;;;4896041;29;19949;-84
2021/12/30 15:01:22;;;;;;;;;;;;;;;;;;4903800;29;19927;-84
2021/12/30 15:03:48;;;;;;;;;;;;;;;;;;4912834;29;20370;-83
2021/12/30 15:06:14;;;;;;;;;;;;;;;;;;4913452;28;20513;-85
2021/12/30 15:08:40;;;;;;;;;;;;;;;;;;4913831;28;20080;-84
2021/12/30 15:11:06;;;;;;;;;;;;;;;;;;4928497;28;19922;-83
2021/12/30 15:13:32;;;;;;;;;;;;;;;;;;4904484;28;20064;-85
2021/12/30 15:15:58;;;;;;;;;;;;;;;;;;4910428;29;19926;-82
2021/12/30 15:18:24;;;;;;;;;;;;;;;;;;4908760;28;19921;-84
2021/12/30 15:20:50;;;;;;;;;;;;;;;;;;4915498;29;19946;-86
2021/12/30 15:23:17;;;;;;;;;;;;;;;;;;4901604;29;20005;-83
2021/12/30 15:25:43;;;;;;;;;;;;;;;;;;4919631;29;19934;-83
2021/12/30 15:28:09;;;;;;;;;;;;;;;;;;4896915;29;20389;-83
2021/12/30 15:30:38;;;;;;;;;;;;;;;;;;4906043;29;19922;-83
2021/12/30 15:33:06;;;;;;;;;;;;;;;;;;4920735;29;20009;-84
2021/12/30 15:35:32;;;;;;;;;;;;;;;;;;4916626;28;20053;-83
2021/12/30 15:37:58;;;;;;;;;;;;;;;;;;4917057;29;20064;-84
2021/12/30 15:40:24;;;;;;;;;;;;;;;;;;4909015;29;20309;-83
2021/12/30 15:42:50;;;;;;;;;;;;;;;;;;4915499;29;20010;-83
2021/12/30 15:45:16;;;;;;;;;;;;;;;;;;4912208;29;20362;-83
2021/12/30 15:47:42;;;;;;;;;;;;;;;;;;4917859;29;19923;-83
2021/12/30 15:50:08;;;;;;;;;;;;;;;;;;4898506;29;19927;-85
2021/12/30 15:55:40;;;;;;;;;;;;;;;;;;5261162;23;20594;-84
2021/12/30 15:58:07;;;;;;;;;;;;;;;;;;4930417;28;19957;-83
2021/12/30 16:00:40;;;;;;;;;;;;;;;;;;4905178;28;20016;-84
2021/12/30 16:03:08;;;;;;;;;;;;;;;;;;4913425;28;20290;-83
2021/12/30 16:05:37;;;;;;;;;;;;;;;;;;4910364;28;19933;-84
2021/12/30 16:08:06;;;;;;;;;;;;;;;;;;4902004;29;19926;-85
2021/12/30 16:10:36;;;;;;;;;;;;;;;;;;4887676;28;19953;-83
2021/12/30 16:13:06;;;;;;;;;;;;;;;;;;4893112;29;19978;-82
2021/12/30 16:15:31;;;;;;;;;;;;;;;;;;4904405;28;22251;-83
2021/12/30 16:17:57;;;;;;;;;;;;;;;;;;4891074;29;20294;-83
2021/12/30 16:20:23;;;;;;;;;;;;;;;;;;4891340;28;19918;-84
2021/12/30 16:22:50;;;;;;;;;;;;;;;;;;4893186;29;20318;-84
2021/12/30 16:25:16;;;;;;;;;;;;;;;;;;4897622;28;19923;-83
2021/12/30 16:27:42;;;;;;;;;;;;;;;;;;4902188;29;20398;-85
2021/12/30 16:30:08;;;;;;;;;;;;;;;;;;4885658;29;19967;-83
2021/12/30 16:32:34;;;;;;;;;;;;;;;;;;4896870;28;19927;-83
2021/12/30 16:35:09;;;;;;;;;;;;;;;;;;4902731;29;19927;-82
2021/12/30 16:37:49;;;;;;;;;;;;;;;;;;;;;
2021/12/30 16:40:18;;;;;;;;;;;;;;;;;;4898870;28;19961;-82
2021/12/30 16:42:45;;;;;;;;;;;;;;;;;;4890194;29;19923;-83
2021/12/30 16:45:13;;;;;;;;;;;;;;;;;;4898689;29;19930;-87